sensor_id;sensor_type;location;lat;lon;timestamp;P1;durP1;ratioP1;P2;durP2;ratioP2
3967;SDS011;9221;42.646;23.380;2023-06-05T00:01:55;14.60;;;7.90;;
3967;SDS011;9221;42.646;23.380;2023-06-05T00:04:20;12.17;;;6.87;;
3967;SDS011;9221;42.646;23.380;2023-06-05T00:06:46;13.83;;;7.67;;
3967;SDS011;9221;42.646;23.380;2023-06-05T00:09:11;12.30;;;7.40;;
3967;SDS011;9221;42.646;23.380;2023-06-05T00:11:38;13.53;;;6.40;;
3967;SDS011;9221;42.646;23.380;2023-06-05T00:14:04;12.60;;;6.87;;
3967;SDS011;9221;42.646;23.380;2023-06-05T00:16:30;15.17;;;6.90;;
3967;SDS011;9221;42.646;23.380;2023-06-05T00:18:56;17.33;;;7.13;;
3967;SDS011;9221;42.646;23.380;2023-06-05T00:21:22;12.60;;;7.47;;
3967;SDS011;9221;42.646;23.380;2023-06-05T00:23:50;11.93;;;7.10;;
3967;SDS011;9221;42.646;23.380;2023-06-05T00:26:15;14.27;;;7.07;;
3967;SDS011;9221;42.646;23.380;2023-06-05T00:28:41;14.20;;;6.60;;
3967;SDS011;9221;42.646;23.380;2023-06-05T00:31:06;15.60;;;7.80;;
3967;SDS011;9221;42.646;23.380;2023-06-05T00:33:32;13.10;;;7.10;;
3967;SDS011;9221;42.646;23.380;2023-06-05T00:35:57;13.93;;;7.77;;
3967;SDS011;9221;42.646;23.380;2023-06-05T00:38:23;14.03;;;7.57;;
3967;SDS011;9221;42.646;23.380;2023-06-05T00:40:48;12.97;;;7.47;;
3967;SDS011;9221;42.646;23.380;2023-06-05T00:43:14;14.97;;;7.67;;
3967;SDS011;9221;42.646;23.380;2023-06-05T00:45:39;16.80;;;8.10;;
3967;SDS011;9221;42.646;23.380;2023-06-05T00:48:05;16.20;;;7.87;;
3967;SDS011;9221;42.646;23.380;2023-06-05T00:50:32;13.60;;;7.57;;
3967;SDS011;9221;42.646;23.380;2023-06-05T00:52:58;14.47;;;6.80;;
3967;SDS011;9221;42.646;23.380;2023-06-05T00:55:26;14.70;;;7.40;;
3967;SDS011;9221;42.646;23.380;2023-06-05T00:57:52;12.80;;;7.80;;
3967;SDS011;9221;42.646;23.380;2023-06-05T01:00:19;20.23;;;7.70;;
3967;SDS011;9221;42.646;23.380;2023-06-05T01:02:44;14.60;;;7.93;;
3967;SDS011;9221;42.646;23.380;2023-06-05T01:05:10;13.33;;;7.13;;
3967;SDS011;9221;42.646;23.380;2023-06-05T01:07:35;15.23;;;7.23;;
3967;SDS011;9221;42.646;23.380;2023-06-05T01:10:05;13.83;;;7.50;;
3967;SDS011;9221;42.646;23.380;2023-06-05T01:15:06;13.20;;;7.53;;
3967;SDS011;9221;42.646;23.380;2023-06-05T01:17:33;11.60;;;7.00;;
3967;SDS011;9221;42.646;23.380;2023-06-05T01:20:01;15.37;;;7.70;;
3967;SDS011;9221;42.646;23.380;2023-06-05T01:22:28;17.57;;;7.50;;
3967;SDS011;9221;42.646;23.380;2023-06-05T01:24:54;14.97;;;8.07;;
3967;SDS011;9221;42.646;23.380;2023-06-05T01:27:30;15.83;;;8.30;;
3967;SDS011;9221;42.646;23.380;2023-06-05T01:32:29;14.83;;;7.33;;
3967;SDS011;9221;42.646;23.380;2023-06-05T01:35:06;16.27;;;8.07;;
3967;SDS011;9221;42.646;23.380;2023-06-05T01:37:38;13.97;;;7.77;;
3967;SDS011;9221;42.646;23.380;2023-06-05T01:40:16;12.47;;;6.83;;
3967;SDS011;9221;42.646;23.380;2023-06-05T01:42:44;17.33;;;8.10;;
3967;SDS011;9221;42.646;23.380;2023-06-05T01:45:12;18.67;;;7.77;;
3967;SDS011;9221;42.646;23.380;2023-06-05T01:47:39;16.40;;;6.93;;
3967;SDS011;9221;42.646;23.380;2023-06-05T01:50:05;14.77;;;8.03;;
3967;SDS011;9221;42.646;23.380;2023-06-05T01:52:33;16.13;;;8.53;;
3967;SDS011;9221;42.646;23.380;2023-06-05T01:54:59;16.63;;;8.23;;
3967;SDS011;9221;42.646;23.380;2023-06-05T01:57:27;17.10;;;7.83;;
3967;SDS011;9221;42.646;23.380;2023-06-05T01:59:53;12.33;;;7.33;;
3967;SDS011;9221;42.646;23.380;2023-06-05T02:02:19;29.60;;;7.77;;
3967;SDS011;9221;42.646;23.380;2023-06-05T02:04:47;16.67;;;7.60;;
3967;SDS011;9221;42.646;23.380;2023-06-05T02:07:13;11.60;;;6.90;;
3967;SDS011;9221;42.646;23.380;2023-06-05T02:09:40;14.53;;;7.07;;
3967;SDS011;9221;42.646;23.380;2023-06-05T02:12:06;20.80;;;7.47;;
3967;SDS011;9221;42.646;23.380;2023-06-05T02:14:32;15.47;;;7.00;;
3967;SDS011;9221;42.646;23.380;2023-06-05T02:17:00;15.50;;;8.07;;
3967;SDS011;9221;42.646;23.380;2023-06-05T02:19:27;13.93;;;6.73;;
3967;SDS011;9221;42.646;23.380;2023-06-05T02:21:52;17.50;;;7.00;;
3967;SDS011;9221;42.646;23.380;2023-06-05T02:24:18;11.47;;;6.33;;
3967;SDS011;9221;42.646;23.380;2023-06-05T02:26:43;11.87;;;7.30;;
3967;SDS011;9221;42.646;23.380;2023-06-05T02:29:09;11.87;;;6.80;;
3967;SDS011;9221;42.646;23.380;2023-06-05T02:31:35;18.00;;;7.30;;
3967;SDS011;9221;42.646;23.380;2023-06-05T02:34:01;13.57;;;7.23;;
3967;SDS011;9221;42.646;23.380;2023-06-05T02:36:27;11.40;;;6.77;;
3967;SDS011;9221;42.646;23.380;2023-06-05T02:38:58;14.30;;;6.77;;
3967;SDS011;9221;42.646;23.380;2023-06-05T02:41:24;21.00;;;8.00;;
3967;SDS011;9221;42.646;23.380;2023-06-05T02:43:51;13.50;;;7.60;;
3967;SDS011;9221;42.646;23.380;2023-06-05T02:46:18;12.50;;;6.40;;
3967;SDS011;9221;42.646;23.380;2023-06-05T02:48:44;16.60;;;7.57;;
3967;SDS011;9221;42.646;23.380;2023-06-05T02:51:09;16.90;;;7.73;;
3967;SDS011;9221;42.646;23.380;2023-06-05T02:53:36;13.50;;;7.37;;
3967;SDS011;9221;42.646;23.380;2023-06-05T02:56:01;14.90;;;7.23;;
3967;SDS011;9221;42.646;23.380;2023-06-05T02:58:27;17.30;;;7.67;;
3967;SDS011;9221;42.646;23.380;2023-06-05T03:00:53;16.40;;;7.53;;
3967;SDS011;9221;42.646;23.380;2023-06-05T03:03:21;18.53;;;8.60;;
3967;SDS011;9221;42.646;23.380;2023-06-05T03:05:50;19.50;;;8.30;;
3967;SDS011;9221;42.646;23.380;2023-06-05T03:08:17;14.50;;;8.00;;
3967;SDS011;9221;42.646;23.380;2023-06-05T03:10:42;18.40;;;8.20;;
3967;SDS011;9221;42.646;23.380;2023-06-05T03:13:08;17.60;;;8.50;;
3967;SDS011;9221;42.646;23.380;2023-06-05T03:15:33;16.63;;;8.50;;
3967;SDS011;9221;42.646;23.380;2023-06-05T03:17:59;19.37;;;8.40;;
3967;SDS011;9221;42.646;23.380;2023-06-05T03:20:25;15.50;;;8.70;;
3967;SDS011;9221;42.646;23.380;2023-06-05T03:22:51;27.10;;;9.13;;
3967;SDS011;9221;42.646;23.380;2023-06-05T03:25:16;19.07;;;8.47;;
3967;SDS011;9221;42.646;23.380;2023-06-05T03:27:42;19.63;;;8.50;;
3967;SDS011;9221;42.646;23.380;2023-06-05T03:30:08;18.30;;;7.90;;
3967;SDS011;9221;42.646;23.380;2023-06-05T03:32:34;17.23;;;8.20;;
3967;SDS011;9221;42.646;23.380;2023-06-05T03:34:59;17.10;;;7.33;;
3967;SDS011;9221;42.646;23.380;2023-06-05T03:37:25;22.73;;;7.80;;
3967;SDS011;9221;42.646;23.380;2023-06-05T03:39:50;21.90;;;7.03;;
3967;SDS011;9221;42.646;23.380;2023-06-05T03:42:16;15.93;;;7.47;;
3967;SDS011;9221;42.646;23.380;2023-06-05T03:44:41;19.10;;;8.40;;
3967;SDS011;9221;42.646;23.380;2023-06-05T03:47:06;14.77;;;6.77;;
3967;SDS011;9221;42.646;23.380;2023-06-05T03:49:33;12.33;;;7.40;;
3967;SDS011;9221;42.646;23.380;2023-06-05T03:52:00;24.07;;;8.20;;
3967;SDS011;9221;42.646;23.380;2023-06-05T03:54:27;15.83;;;8.00;;
3967;SDS011;9221;42.646;23.380;2023-06-05T03:56:56;17.67;;;8.07;;
3967;SDS011;9221;42.646;23.380;2023-06-05T03:59:24;15.13;;;7.97;;
3967;SDS011;9221;42.646;23.380;2023-06-05T04:01:50;16.40;;;8.77;;
3967;SDS011;9221;42.646;23.380;2023-06-05T04:04:16;20.20;;;8.93;;
3967;SDS011;9221;42.646;23.380;2023-06-05T04:06:42;19.90;;;8.13;;
3967;SDS011;9221;42.646;23.380;2023-06-05T04:09:08;22.87;;;9.70;;
3967;SDS011;9221;42.646;23.380;2023-06-05T04:11:40;19.03;;;8.97;;
3967;SDS011;9221;42.646;23.380;2023-06-05T04:14:07;19.07;;;8.43;;
3967;SDS011;9221;42.646;23.380;2023-06-05T04:16:33;21.17;;;8.67;;
3967;SDS011;9221;42.646;23.380;2023-06-05T04:18:59;24.70;;;8.57;;
3967;SDS011;9221;42.646;23.380;2023-06-05T04:21:25;20.30;;;9.37;;
3967;SDS011;9221;42.646;23.380;2023-06-05T04:23:50;15.33;;;8.70;;
3967;SDS011;9221;42.646;23.380;2023-06-05T04:26:16;17.33;;;8.33;;
3967;SDS011;9221;42.646;23.380;2023-06-05T04:28:42;19.93;;;8.47;;
3967;SDS011;9221;42.646;23.380;2023-06-05T04:31:08;15.20;;;8.60;;
3967;SDS011;9221;42.646;23.380;2023-06-05T04:33:34;20.43;;;9.80;;
3967;SDS011;9221;42.646;23.380;2023-06-05T04:35:59;23.63;;;8.87;;
3967;SDS011;9221;42.646;23.380;2023-06-05T04:38:25;18.80;;;9.60;;
3967;SDS011;9221;42.646;23.380;2023-06-05T04:40:50;27.43;;;9.40;;
3967;SDS011;9221;42.646;23.380;2023-06-05T04:43:16;19.83;;;8.97;;
3967;SDS011;9221;42.646;23.380;2023-06-05T04:45:42;18.20;;;9.73;;
3967;SDS011;9221;42.646;23.380;2023-06-05T04:48:10;18.53;;;9.20;;
3967;SDS011;9221;42.646;23.380;2023-06-05T04:50:35;24.33;;;9.70;;
3967;SDS011;9221;42.646;23.380;2023-06-05T04:53:01;20.57;;;8.80;;
3967;SDS011;9221;42.646;23.380;2023-06-05T04:55:27;16.47;;;9.30;;
3967;SDS011;9221;42.646;23.380;2023-06-05T04:57:52;17.13;;;9.03;;
3967;SDS011;9221;42.646;23.380;2023-06-05T05:00:18;13.90;;;8.10;;
3967;SDS011;9221;42.646;23.380;2023-06-05T05:02:44;19.07;;;8.20;;
3967;SDS011;9221;42.646;23.380;2023-06-05T05:05:10;24.83;;;8.33;;
3967;SDS011;9221;42.646;23.380;2023-06-05T05:07:41;16.80;;;9.20;;
3967;SDS011;9221;42.646;23.380;2023-06-05T05:10:08;14.97;;;8.30;;
3967;SDS011;9221;42.646;23.380;2023-06-05T05:12:34;20.17;;;8.37;;
3967;SDS011;9221;42.646;23.380;2023-06-05T05:15:01;17.73;;;9.07;;
3967;SDS011;9221;42.646;23.380;2023-06-05T05:17:27;16.87;;;9.50;;
3967;SDS011;9221;42.646;23.380;2023-06-05T05:19:54;19.83;;;8.30;;
3967;SDS011;9221;42.646;23.380;2023-06-05T05:22:20;20.97;;;8.97;;
3967;SDS011;9221;42.646;23.380;2023-06-05T05:24:45;14.17;;;8.43;;
3967;SDS011;9221;42.646;23.380;2023-06-05T05:27:11;19.57;;;9.20;;
3967;SDS011;9221;42.646;23.380;2023-06-05T05:29:36;23.03;;;9.33;;
3967;SDS011;9221;42.646;23.380;2023-06-05T05:32:01;17.80;;;9.00;;
3967;SDS011;9221;42.646;23.380;2023-06-05T05:34:27;28.83;;;8.77;;
3967;SDS011;9221;42.646;23.380;2023-06-05T05:36:52;21.80;;;9.50;;
3967;SDS011;9221;42.646;23.380;2023-06-05T05:39:18;17.80;;;8.37;;
3967;SDS011;9221;42.646;23.380;2023-06-05T05:41:43;18.90;;;8.80;;
3967;SDS011;9221;42.646;23.380;2023-06-05T05:44:09;17.77;;;8.07;;
3967;SDS011;9221;42.646;23.380;2023-06-05T05:46:35;22.93;;;9.23;;
3967;SDS011;9221;42.646;23.380;2023-06-05T05:49:01;18.77;;;8.70;;
3967;SDS011;9221;42.646;23.380;2023-06-05T05:51:26;19.23;;;10.00;;
3967;SDS011;9221;42.646;23.380;2023-06-05T05:53:51;19.63;;;9.63;;
3967;SDS011;9221;42.646;23.380;2023-06-05T05:56:17;19.17;;;9.17;;
3967;SDS011;9221;42.646;23.380;2023-06-05T05:58:42;20.00;;;9.07;;
3967;SDS011;9221;42.646;23.380;2023-06-05T06:01:09;19.33;;;9.33;;
3967;SDS011;9221;42.646;23.380;2023-06-05T06:03:34;19.67;;;9.20;;
3967;SDS011;9221;42.646;23.380;2023-06-05T06:06:02;17.60;;;9.00;;
3967;SDS011;9221;42.646;23.380;2023-06-05T06:08:31;22.47;;;9.13;;
3967;SDS011;9221;42.646;23.380;2023-06-05T06:10:58;19.10;;;8.53;;
3967;SDS011;9221;42.646;23.380;2023-06-05T06:13:24;22.83;;;8.57;;
3967;SDS011;9221;42.646;23.380;2023-06-05T06:15:50;18.90;;;8.60;;
3967;SDS011;9221;42.646;23.380;2023-06-05T06:18:15;16.47;;;7.40;;
3967;SDS011;9221;42.646;23.380;2023-06-05T06:20:41;19.90;;;9.40;;
3967;SDS011;9221;42.646;23.380;2023-06-05T06:23:07;16.33;;;8.43;;
3967;SDS011;9221;42.646;23.380;2023-06-05T06:25:32;21.23;;;9.87;;
3967;SDS011;9221;42.646;23.380;2023-06-05T06:27:59;17.00;;;8.60;;
3967;SDS011;9221;42.646;23.380;2023-06-05T06:30:26;20.07;;;8.20;;
3967;SDS011;9221;42.646;23.380;2023-06-05T06:32:55;18.47;;;8.33;;
3967;SDS011;9221;42.646;23.380;2023-06-05T06:35:23;16.80;;;9.37;;
3967;SDS011;9221;42.646;23.380;2023-06-05T06:37:52;18.67;;;8.97;;
3967;SDS011;9221;42.646;23.380;2023-06-05T06:40:18;17.50;;;8.50;;
3967;SDS011;9221;42.646;23.380;2023-06-05T06:42:44;17.70;;;8.97;;
3967;SDS011;9221;42.646;23.380;2023-06-05T06:45:09;18.73;;;9.03;;
3967;SDS011;9221;42.646;23.380;2023-06-05T06:47:35;19.13;;;7.53;;
3967;SDS011;9221;42.646;23.380;2023-06-05T06:50:01;15.93;;;7.73;;
3967;SDS011;9221;42.646;23.380;2023-06-05T06:52:26;19.07;;;9.33;;
3967;SDS011;9221;42.646;23.380;2023-06-05T06:54:51;15.87;;;8.73;;
3967;SDS011;9221;42.646;23.380;2023-06-05T06:57:17;18.70;;;8.90;;
3967;SDS011;9221;42.646;23.380;2023-06-05T06:59:42;19.00;;;9.00;;
3967;SDS011;9221;42.646;23.380;2023-06-05T07:02:19;17.60;;;9.00;;
3967;SDS011;9221;42.646;23.380;2023-06-05T07:04:46;19.03;;;9.37;;
3967;SDS011;9221;42.646;23.380;2023-06-05T07:07:15;18.23;;;9.67;;
3967;SDS011;9221;42.646;23.380;2023-06-05T07:09:42;20.10;;;9.90;;
3967;SDS011;9221;42.646;23.380;2023-06-05T07:12:12;22.60;;;9.70;;
3967;SDS011;9221;42.646;23.380;2023-06-05T07:14:39;26.90;;;10.10;;
3967;SDS011;9221;42.646;23.380;2023-06-05T07:17:05;19.73;;;9.33;;
3967;SDS011;9221;42.646;23.380;2023-06-05T07:19:31;19.63;;;9.57;;
3967;SDS011;9221;42.646;23.380;2023-06-05T07:21:58;17.73;;;8.73;;
3967;SDS011;9221;42.646;23.380;2023-06-05T07:24:25;18.67;;;9.33;;
3967;SDS011;9221;42.646;23.380;2023-06-05T07:26:54;19.77;;;8.53;;
3967;SDS011;9221;42.646;23.380;2023-06-05T07:29:21;19.20;;;8.53;;
3967;SDS011;9221;42.646;23.380;2023-06-05T07:31:50;20.90;;;8.90;;
3967;SDS011;9221;42.646;23.380;2023-06-05T07:34:19;22.73;;;9.70;;
3967;SDS011;9221;42.646;23.380;2023-06-05T07:36:46;20.37;;;8.90;;
3967;SDS011;9221;42.646;23.380;2023-06-05T07:39:12;21.20;;;9.60;;
3967;SDS011;9221;42.646;23.380;2023-06-05T07:41:39;19.20;;;9.67;;
3967;SDS011;9221;42.646;23.380;2023-06-05T07:44:07;21.53;;;9.10;;
3967;SDS011;9221;42.646;23.380;2023-06-05T07:46:34;21.60;;;9.60;;
3967;SDS011;9221;42.646;23.380;2023-06-05T07:48:59;21.57;;;9.47;;
3967;SDS011;9221;42.646;23.380;2023-06-05T07:51:25;17.40;;;8.90;;
3967;SDS011;9221;42.646;23.380;2023-06-05T07:53:51;23.77;;;8.53;;
3967;SDS011;9221;42.646;23.380;2023-06-05T07:56:16;15.80;;;7.50;;
3967;SDS011;9221;42.646;23.380;2023-06-05T07:58:42;18.87;;;8.97;;
3967;SDS011;9221;42.646;23.380;2023-06-05T08:01:07;19.10;;;8.67;;
3967;SDS011;9221;42.646;23.380;2023-06-05T08:03:33;17.57;;;8.47;;
3967;SDS011;9221;42.646;23.380;2023-06-05T08:05:59;26.83;;;8.07;;
3967;SDS011;9221;42.646;23.380;2023-06-05T08:08:24;17.00;;;7.63;;
3967;SDS011;9221;42.646;23.380;2023-06-05T08:10:50;18.63;;;7.60;;
3967;SDS011;9221;42.646;23.380;2023-06-05T08:13:16;14.60;;;7.67;;
3967;SDS011;9221;42.646;23.380;2023-06-05T08:15:42;14.40;;;7.73;;
3967;SDS011;9221;42.646;23.380;2023-06-05T08:18:07;19.33;;;8.40;;
3967;SDS011;9221;42.646;23.380;2023-06-05T08:20:33;16.20;;;7.60;;
3967;SDS011;9221;42.646;23.380;2023-06-05T08:22:59;14.47;;;7.47;;
3967;SDS011;9221;42.646;23.380;2023-06-05T08:25:25;17.07;;;7.50;;
3967;SDS011;9221;42.646;23.380;2023-06-05T08:27:51;13.67;;;7.63;;
3967;SDS011;9221;42.646;23.380;2023-06-05T08:30:17;16.03;;;7.80;;
3967;SDS011;9221;42.646;23.380;2023-06-05T08:32:43;14.63;;;6.90;;
3967;SDS011;9221;42.646;23.380;2023-06-05T08:35:09;15.30;;;7.77;;
3967;SDS011;9221;42.646;23.380;2023-06-05T08:37:36;17.80;;;8.33;;
3967;SDS011;9221;42.646;23.380;2023-06-05T08:40:04;17.73;;;7.00;;
3967;SDS011;9221;42.646;23.380;2023-06-05T08:42:35;15.60;;;7.37;;
3967;SDS011;9221;42.646;23.380;2023-06-05T08:45:02;16.23;;;7.00;;
3967;SDS011;9221;42.646;23.380;2023-06-05T08:47:30;12.10;;;7.00;;
3967;SDS011;9221;42.646;23.380;2023-06-05T08:49:56;16.80;;;6.97;;
3967;SDS011;9221;42.646;23.380;2023-06-05T08:52:22;18.27;;;7.67;;
3967;SDS011;9221;42.646;23.380;2023-06-05T08:54:48;14.10;;;6.90;;
3967;SDS011;9221;42.646;23.380;2023-06-05T08:57:14;14.10;;;7.43;;
3967;SDS011;9221;42.646;23.380;2023-06-05T08:59:40;13.67;;;7.90;;
3967;SDS011;9221;42.646;23.380;2023-06-05T09:02:06;12.93;;;7.13;;
3967;SDS011;9221;42.646;23.380;2023-06-05T09:04:33;14.67;;;6.10;;
3967;SDS011;9221;42.646;23.380;2023-06-05T09:06:58;18.23;;;7.07;;
3967;SDS011;9221;42.646;23.380;2023-06-05T09:09:24;17.13;;;8.10;;
3967;SDS011;9221;42.646;23.380;2023-06-05T09:12:11;13.00;;;6.37;;
3967;SDS011;9221;42.646;23.380;2023-06-05T09:14:38;13.87;;;6.53;;
3967;SDS011;9221;42.646;23.380;2023-06-05T09:17:03;15.37;;;6.50;;
3967;SDS011;9221;42.646;23.380;2023-06-05T09:19:37;12.50;;;6.47;;
3967;SDS011;9221;42.646;23.380;2023-06-05T09:22:05;15.20;;;6.03;;
3967;SDS011;9221;42.646;23.380;2023-06-05T09:24:31;11.83;;;5.63;;
3967;SDS011;9221;42.646;23.380;2023-06-05T09:27:01;11.80;;;5.60;;
3967;SDS011;9221;42.646;23.380;2023-06-05T09:32:01;9.80;;;4.80;;
3967;SDS011;9221;42.646;23.380;2023-06-05T09:34:38;13.57;;;6.03;;
3967;SDS011;9221;42.646;23.380;2023-06-05T09:37:06;10.40;;;5.70;;
3967;SDS011;9221;42.646;23.380;2023-06-05T09:39:36;14.23;;;6.43;;
3967;SDS011;9221;42.646;23.380;2023-06-05T09:42:02;12.47;;;6.70;;
3967;SDS011;9221;42.646;23.380;2023-06-05T09:44:29;13.27;;;6.40;;
3967;SDS011;9221;42.646;23.380;2023-06-05T09:46:59;16.90;;;6.70;;
3967;SDS011;9221;42.646;23.380;2023-06-05T09:49:30;12.67;;;6.77;;
3967;SDS011;9221;42.646;23.380;2023-06-05T09:51:56;16.93;;;7.13;;
3967;SDS011;9221;42.646;23.380;2023-06-05T09:54:25;16.50;;;7.17;;
3967;SDS011;9221;42.646;23.380;2023-06-05T09:56:51;18.30;;;7.20;;
3967;SDS011;9221;42.646;23.380;2023-06-05T09:59:26;13.23;;;7.30;;
3967;SDS011;9221;42.646;23.380;2023-06-05T10:01:55;14.03;;;6.93;;
3967;SDS011;9221;42.646;23.380;2023-06-05T10:04:22;11.53;;;6.13;;
3967;SDS011;9221;42.646;23.380;2023-06-05T10:06:50;29.20;;;6.53;;
3967;SDS011;9221;42.646;23.380;2023-06-05T10:09:17;16.73;;;6.63;;
3967;SDS011;9221;42.646;23.380;2023-06-05T10:11:43;13.00;;;6.33;;
3967;SDS011;9221;42.646;23.380;2023-06-05T10:14:12;13.13;;;6.67;;
3967;SDS011;9221;42.646;23.380;2023-06-05T10:16:38;24.63;;;6.30;;
3967;SDS011;9221;42.646;23.380;2023-06-05T10:19:04;14.90;;;6.10;;
3967;SDS011;9221;42.646;23.380;2023-06-05T10:21:31;14.73;;;6.53;;
3967;SDS011;9221;42.646;23.380;2023-06-05T10:23:59;15.40;;;7.00;;
3967;SDS011;9221;42.646;23.380;2023-06-05T10:29:41;12.87;;;6.80;;
3967;SDS011;9221;42.646;23.380;2023-06-05T10:35:13;12.37;;;5.90;;
3967;SDS011;9221;42.646;23.380;2023-06-05T10:40:42;18.07;;;6.70;;
3967;SDS011;9221;42.646;23.380;2023-06-05T10:46:01;14.43;;;6.07;;
3967;SDS011;9221;42.646;23.380;2023-06-05T10:54:14;17.70;;;7.10;;
3967;SDS011;9221;42.646;23.380;2023-06-05T10:59:17;17.83;;;6.70;;
3967;SDS011;9221;42.646;23.380;2023-06-05T11:01:50;14.87;;;7.30;;
3967;SDS011;9221;42.646;23.380;2023-06-05T11:07:21;16.10;;;7.30;;
3967;SDS011;9221;42.646;23.380;2023-06-05T11:10:03;12.30;;;6.90;;
3967;SDS011;9221;42.646;23.380;2023-06-05T11:27:53;14.37;;;6.07;;
3967;SDS011;9221;42.646;23.380;2023-06-05T11:30:22;10.37;;;5.27;;
3967;SDS011;9221;42.646;23.380;2023-06-05T11:32:50;8.90;;;5.30;;
3967;SDS011;9221;42.646;23.380;2023-06-05T11:35:21;13.67;;;5.70;;
3967;SDS011;9221;42.646;23.380;2023-06-05T11:37:47;10.43;;;5.30;;
3967;SDS011;9221;42.646;23.380;2023-06-05T11:40:22;8.23;;;5.33;;
3967;SDS011;9221;42.646;23.380;2023-06-05T11:42:49;9.77;;;4.80;;
3967;SDS011;9221;42.646;23.380;2023-06-05T11:45:14;9.03;;;4.97;;
3967;SDS011;9221;42.646;23.380;2023-06-05T11:47:40;9.90;;;4.77;;
3967;SDS011;9221;42.646;23.380;2023-06-05T11:50:07;11.63;;;5.20;;
3967;SDS011;9221;42.646;23.380;2023-06-05T11:52:33;8.27;;;4.80;;
3967;SDS011;9221;42.646;23.380;2023-06-05T11:55:10;8.07;;;4.67;;
3967;SDS011;9221;42.646;23.380;2023-06-05T11:57:44;9.30;;;4.30;;
3967;SDS011;9221;42.646;23.380;2023-06-05T12:00:12;16.77;;;5.10;;
3967;SDS011;9221;42.646;23.380;2023-06-05T12:02:38;8.23;;;4.63;;
3967;SDS011;9221;42.646;23.380;2023-06-05T12:05:11;9.90;;;5.17;;
3967;SDS011;9221;42.646;23.380;2023-06-05T12:07:37;10.90;;;4.47;;
3967;SDS011;9221;42.646;23.380;2023-06-05T12:10:04;8.77;;;4.40;;
3967;SDS011;9221;42.646;23.380;2023-06-05T12:12:33;7.93;;;4.53;;
3967;SDS011;9221;42.646;23.380;2023-06-05T12:15:15;6.90;;;3.90;;
3967;SDS011;9221;42.646;23.380;2023-06-05T12:17:48;5.97;;;4.00;;
3967;SDS011;9221;42.646;23.380;2023-06-05T12:20:17;6.10;;;4.20;;
3967;SDS011;9221;42.646;23.380;2023-06-05T12:22:43;13.10;;;3.70;;
3967;SDS011;9221;42.646;23.380;2023-06-05T12:25:18;7.90;;;3.63;;
3967;SDS011;9221;42.646;23.380;2023-06-05T12:27:45;6.70;;;3.50;;
3967;SDS011;9221;42.646;23.380;2023-06-05T12:30:11;5.90;;;3.27;;
3967;SDS011;9221;42.646;23.380;2023-06-05T12:32:37;10.17;;;3.67;;
3967;SDS011;9221;42.646;23.380;2023-06-05T12:35:17;6.30;;;3.83;;
3967;SDS011;9221;42.646;23.380;2023-06-05T12:37:43;7.37;;;3.80;;
3967;SDS011;9221;42.646;23.380;2023-06-05T12:40:10;8.07;;;4.10;;
3967;SDS011;9221;42.646;23.380;2023-06-05T12:42:37;5.70;;;3.37;;
3967;SDS011;9221;42.646;23.380;2023-06-05T12:45:07;6.17;;;4.03;;
3967;SDS011;9221;42.646;23.380;2023-06-05T12:47:33;6.57;;;3.80;;
3967;SDS011;9221;42.646;23.380;2023-06-05T12:50:00;5.57;;;3.50;;
3967;SDS011;9221;42.646;23.380;2023-06-05T12:52:26;8.00;;;4.00;;
3967;SDS011;9221;42.646;23.380;2023-06-05T12:54:52;7.47;;;3.63;;
3967;SDS011;9221;42.646;23.380;2023-06-05T12:57:19;4.80;;;2.80;;
3967;SDS011;9221;42.646;23.380;2023-06-05T12:59:46;4.90;;;3.43;;
3967;SDS011;9221;42.646;23.380;2023-06-05T13:02:15;10.60;;;4.07;;
3967;SDS011;9221;42.646;23.380;2023-06-05T13:04:41;4.97;;;3.00;;
3967;SDS011;9221;42.646;23.380;2023-06-05T13:07:06;7.87;;;4.67;;
3967;SDS011;9221;42.646;23.380;2023-06-05T13:09:32;7.30;;;3.40;;
3967;SDS011;9221;42.646;23.380;2023-06-05T13:11:58;10.33;;;3.73;;
3967;SDS011;9221;42.646;23.380;2023-06-05T13:14:24;5.27;;;3.73;;
3967;SDS011;9221;42.646;23.380;2023-06-05T13:16:51;10.50;;;4.70;;
3967;SDS011;9221;42.646;23.380;2023-06-05T13:19:16;5.80;;;3.30;;
3967;SDS011;9221;42.646;23.380;2023-06-05T13:21:42;5.37;;;3.50;;
3967;SDS011;9221;42.646;23.380;2023-06-05T13:24:07;7.70;;;3.73;;
3967;SDS011;9221;42.646;23.380;2023-06-05T13:26:33;6.37;;;3.57;;
3967;SDS011;9221;42.646;23.380;2023-06-05T13:28:58;6.00;;;3.90;;
3967;SDS011;9221;42.646;23.380;2023-06-05T13:31:23;4.50;;;3.20;;
3967;SDS011;9221;42.646;23.380;2023-06-05T13:33:49;6.50;;;4.00;;
3967;SDS011;9221;42.646;23.380;2023-06-05T13:36:15;7.03;;;3.70;;
3967;SDS011;9221;42.646;23.380;2023-06-05T13:38:41;3.70;;;2.87;;
3967;SDS011;9221;42.646;23.380;2023-06-05T13:41:07;9.80;;;3.70;;
3967;SDS011;9221;42.646;23.380;2023-06-05T13:43:33;6.40;;;3.77;;
3967;SDS011;9221;42.646;23.380;2023-06-05T13:45:59;5.57;;;3.50;;
3967;SDS011;9221;42.646;23.380;2023-06-05T13:48:25;7.70;;;3.13;;
3967;SDS011;9221;42.646;23.380;2023-06-05T13:50:51;9.90;;;4.10;;
3967;SDS011;9221;42.646;23.380;2023-06-05T13:53:16;7.17;;;3.43;;
3967;SDS011;9221;42.646;23.380;2023-06-05T13:55:42;6.13;;;3.50;;
3967;SDS011;9221;42.646;23.380;2023-06-05T13:58:07;8.40;;;3.50;;
3967;SDS011;9221;42.646;23.380;2023-06-05T14:00:34;7.83;;;3.77;;
3967;SDS011;9221;42.646;23.380;2023-06-05T14:03:00;6.33;;;3.43;;
3967;SDS011;9221;42.646;23.380;2023-06-05T14:05:25;6.13;;;2.70;;
3967;SDS011;9221;42.646;23.380;2023-06-05T14:07:54;9.93;;;3.30;;
3967;SDS011;9221;42.646;23.380;2023-06-05T14:10:21;3.30;;;2.70;;
3967;SDS011;9221;42.646;23.380;2023-06-05T14:12:47;5.53;;;2.77;;
3967;SDS011;9221;42.646;23.380;2023-06-05T14:15:13;7.67;;;3.20;;
3967;SDS011;9221;42.646;23.380;2023-06-05T14:17:39;6.73;;;2.90;;
3967;SDS011;9221;42.646;23.380;2023-06-05T14:20:04;4.50;;;2.80;;
3967;SDS011;9221;42.646;23.380;2023-06-05T14:22:31;7.23;;;3.87;;
3967;SDS011;9221;42.646;23.380;2023-06-05T14:24:56;6.67;;;3.33;;
3967;SDS011;9221;42.646;23.380;2023-06-05T14:27:21;7.70;;;4.23;;
3967;SDS011;9221;42.646;23.380;2023-06-05T14:29:47;9.73;;;4.90;;
3967;SDS011;9221;42.646;23.380;2023-06-05T14:32:12;10.40;;;3.40;;
3967;SDS011;9221;42.646;23.380;2023-06-05T14:34:38;7.33;;;4.00;;
3967;SDS011;9221;42.646;23.380;2023-06-05T14:37:03;19.27;;;6.83;;
3967;SDS011;9221;42.646;23.380;2023-06-05T14:39:29;4.87;;;3.27;;
3967;SDS011;9221;42.646;23.380;2023-06-05T14:41:54;10.33;;;3.83;;
3967;SDS011;9221;42.646;23.380;2023-06-05T14:44:19;10.23;;;3.60;;
3967;SDS011;9221;42.646;23.380;2023-06-05T14:46:46;9.10;;;3.90;;
3967;SDS011;9221;42.646;23.380;2023-06-05T14:49:12;12.90;;;3.93;;
3967;SDS011;9221;42.646;23.380;2023-06-05T14:51:40;5.40;;;3.57;;
3967;SDS011;9221;42.646;23.380;2023-06-05T14:54:06;6.17;;;4.00;;
3967;SDS011;9221;42.646;23.380;2023-06-05T14:56:31;7.63;;;4.20;;
3967;SDS011;9221;42.646;23.380;2023-06-05T14:58:56;6.70;;;4.37;;
3967;SDS011;9221;42.646;23.380;2023-06-05T15:01:22;7.77;;;4.23;;
3967;SDS011;9221;42.646;23.380;2023-06-05T15:03:47;6.17;;;3.47;;
3967;SDS011;9221;42.646;23.380;2023-06-05T15:06:13;7.40;;;3.80;;
3967;SDS011;9221;42.646;23.380;2023-06-05T15:08:39;7.37;;;3.50;;
3967;SDS011;9221;42.646;23.380;2023-06-05T15:11:04;8.57;;;4.13;;
3967;SDS011;9221;42.646;23.380;2023-06-05T15:13:30;11.87;;;5.27;;
3967;SDS011;9221;42.646;23.380;2023-06-05T15:15:55;10.53;;;4.57;;
3967;SDS011;9221;42.646;23.380;2023-06-05T15:18:23;14.03;;;4.57;;
3967;SDS011;9221;42.646;23.380;2023-06-05T15:20:48;9.57;;;4.70;;
3967;SDS011;9221;42.646;23.380;2023-06-05T15:23:14;7.70;;;4.50;;
3967;SDS011;9221;42.646;23.380;2023-06-05T15:25:40;8.90;;;5.03;;
3967;SDS011;9221;42.646;23.380;2023-06-05T15:28:06;10.97;;;5.37;;
3967;SDS011;9221;42.646;23.380;2023-06-05T15:30:31;6.67;;;4.53;;
3967;SDS011;9221;42.646;23.380;2023-06-05T15:32:57;9.83;;;4.70;;
3967;SDS011;9221;42.646;23.380;2023-06-05T15:35:23;11.00;;;4.67;;